createdAt,value
2024-01-31T00:00:16.068Z,1.70
2024-01-31T00:02:44.672Z,1.50
2024-01-31T00:05:15.363Z,1.70
2024-01-31T00:07:44.371Z,1.80
2024-01-31T00:10:14.831Z,1.57
2024-01-31T00:12:43.364Z,1.50
2024-01-31T00:15:14.426Z,1.83
2024-01-31T00:17:43.863Z,1.43
2024-01-31T00:20:14.274Z,1.40
2024-01-31T00:22:42.785Z,1.97
2024-01-31T00:25:11.420Z,1.53
2024-01-31T00:27:40.275Z,1.40
2024-01-31T00:30:11.570Z,1.10
2024-01-31T00:32:41.837Z,1.10
2024-01-31T00:35:10.634Z,1.40
2024-01-31T00:37:39.391Z,1.47
2024-01-31T00:40:11.493Z,1.40
2024-01-31T00:42:43.363Z,1.33
2024-01-31T00:45:15.298Z,1.33
2024-01-31T00:47:46.144Z,1.33
2024-01-31T00:50:15.208Z,1.63
2024-01-31T00:52:44.091Z,1.50
2024-01-31T00:55:13.101Z,1.17
2024-01-31T00:57:41.889Z,1.10
2024-01-31T01:00:16.618Z,1.20
2024-01-31T01:02:46.688Z,1.10
2024-01-31T01:05:17.152Z,1.10
2024-01-31T01:07:48.356Z,1.30
2024-01-31T01:10:17.689Z,1.20
2024-01-31T01:12:46.296Z,1.10
2024-01-31T01:15:17.603Z,1.30
2024-01-31T01:17:48.217Z,1.10
2024-01-31T01:20:17.184Z,1.27
2024-01-31T01:22:46.875Z,1.17
2024-01-31T01:25:15.769Z,1.30
2024-01-31T01:27:52.685Z,1.30
2024-01-31T01:30:22.288Z,1.10
2024-01-31T01:32:53.476Z,1.13
2024-01-31T01:35:22.297Z,1.03
2024-01-31T01:37:50.870Z,1.07
2024-01-31T01:40:22.180Z,1.10
2024-01-31T01:42:50.893Z,1.03
2024-01-31T01:45:19.371Z,0.90
2024-01-31T01:47:51.882Z,1.07
2024-01-31T01:50:25.463Z,1.20
2024-01-31T01:52:54.715Z,1.47
2024-01-31T01:55:23.730Z,1.10
2024-01-31T01:57:52.234Z,1.20
2024-01-31T02:00:21.222Z,1.57
2024-01-31T02:02:50.101Z,1.10
2024-01-31T02:05:18.940Z,0.80
2024-01-31T02:07:51.477Z,1.30
2024-01-31T02:10:20.028Z,1.10
2024-01-31T02:12:48.645Z,0.80
2024-01-31T02:15:17.155Z,1.03
2024-01-31T02:17:45.665Z,1.40
2024-01-31T02:20:17.714Z,1.20
2024-01-31T02:22:49.041Z,1.00
2024-01-31T02:25:19.112Z,0.90
2024-01-31T02:27:47.405Z,1.07
2024-01-31T02:30:17.240Z,1.10
2024-01-31T02:32:45.650Z,1.07
2024-01-31T02:35:16.328Z,1.50
2024-01-31T02:37:45.756Z,1.30
2024-01-31T02:40:18.353Z,1.03
2024-01-31T02:42:47.041Z,1.30
2024-01-31T02:45:15.728Z,1.23
2024-01-31T02:47:44.344Z,0.90
2024-01-31T02:50:13.494Z,2.47
2024-01-31T02:52:42.219Z,1.27
2024-01-31T02:55:11.368Z,1.40
2024-01-31T02:57:41.910Z,1.50
2024-01-31T03:00:13.641Z,1.20
2024-01-31T03:02:44.118Z,2.47
2024-01-31T03:05:13.418Z,1.60
2024-01-31T03:07:42.640Z,1.00
2024-01-31T03:10:12.590Z,1.90
2024-01-31T03:12:43.123Z,0.90
2024-01-31T03:15:11.425Z,1.13
2024-01-31T03:17:39.955Z,1.40
2024-01-31T03:20:09.591Z,1.30
2024-01-31T03:22:38.302Z,1.50
2024-01-31T03:25:06.947Z,1.20
2024-01-31T03:27:36.589Z,1.07
2024-01-31T03:30:09.499Z,1.10
2024-01-31T03:32:39.756Z,1.10
2024-01-31T03:35:10.088Z,1.70
2024-01-31T03:37:38.979Z,1.83
2024-01-31T03:40:10.364Z,1.70
2024-01-31T03:42:38.803Z,1.43
2024-01-31T03:45:10.600Z,1.23
2024-01-31T03:47:39.173Z,1.10
2024-01-31T03:50:08.448Z,1.50
2024-01-31T03:52:37.927Z,1.57
2024-01-31T03:55:07.498Z,1.30
2024-01-31T03:57:36.192Z,1.40
2024-01-31T04:00:06.901Z,1.67
2024-01-31T04:02:37.704Z,1.47
2024-01-31T04:05:06.988Z,1.87
2024-01-31T04:07:35.471Z,1.23
2024-01-31T04:10:04.868Z,1.70
2024-01-31T04:12:33.491Z,1.50
2024-01-31T04:15:01.929Z,1.30
2024-01-31T04:17:30.133Z,1.90
2024-01-31T04:19:59.976Z,1.50
2024-01-31T04:22:28.296Z,1.37
2024-01-31T04:24:56.975Z,1.60
2024-01-31T04:27:25.892Z,1.50
2024-01-31T04:29:54.259Z,1.40
2024-01-31T04:32:24.678Z,1.43
2024-01-31T04:34:54.561Z,1.60
2024-01-31T04:37:24.668Z,1.30
2024-01-31T04:39:53.711Z,1.17
2024-01-31T04:42:22.316Z,1.07
2024-01-31T04:44:51.702Z,1.00
2024-01-31T04:47:20.207Z,1.10
2024-01-31T04:49:48.652Z,1.60
2024-01-31T04:52:17.261Z,1.53
2024-01-31T04:54:47.419Z,2.67
2024-01-31T04:57:15.955Z,1.40
2024-01-31T04:59:45.207Z,1.00
2024-01-31T05:02:16.600Z,1.30
2024-01-31T05:04:47.181Z,1.10
2024-01-31T05:07:16.188Z,2.10
2024-01-31T05:09:44.494Z,2.50
2024-01-31T05:12:15.298Z,1.60
2024-01-31T05:14:44.310Z,1.10
2024-01-31T05:17:17.575Z,1.23
2024-01-31T05:19:45.980Z,3.20
2024-01-31T05:22:14.397Z,1.20
2024-01-31T05:24:42.996Z,1.20
2024-01-31T05:27:12.230Z,1.60
2024-01-31T05:29:42.351Z,0.80
2024-01-31T05:32:11.022Z,1.20
2024-01-31T05:34:41.953Z,1.00
2024-01-31T05:37:11.122Z,7.13
2024-01-31T05:39:40.477Z,7.90
2024-01-31T05:42:09.239Z,1.93
2024-01-31T05:44:37.767Z,1.67
2024-01-31T05:47:08.094Z,1.50
2024-01-31T05:49:36.854Z,1.73
2024-01-31T05:52:06.036Z,1.00
2024-01-31T05:54:34.705Z,1.27
2024-01-31T05:57:03.541Z,1.23
2024-01-31T05:59:32.141Z,1.00
2024-01-31T06:02:01.187Z,1.10
2024-01-31T06:04:31.513Z,1.00
2024-01-31T06:06:59.989Z,1.60
2024-01-31T06:09:29.110Z,1.13
2024-01-31T06:11:57.728Z,1.10
2024-01-31T06:14:26.836Z,1.50
2024-01-31T06:16:55.469Z,1.23
2024-01-31T06:19:24.054Z,1.10
2024-01-31T06:21:53.898Z,1.13
2024-01-31T06:24:22.536Z,1.17
2024-01-31T06:26:51.404Z,1.40
2024-01-31T06:29:20.315Z,1.40
2024-01-31T06:31:49.843Z,0.97
2024-01-31T06:34:20.189Z,1.10
2024-01-31T06:36:48.842Z,1.40
2024-01-31T06:39:20.438Z,2.23
2024-01-31T06:41:48.939Z,1.20
2024-01-31T06:44:17.683Z,1.30
2024-01-31T06:46:50.226Z,1.50
2024-01-31T06:49:20.192Z,1.50
2024-01-31T06:51:50.177Z,1.50
2024-01-31T06:54:20.830Z,1.30
2024-01-31T06:56:50.393Z,1.33
2024-01-31T06:59:19.618Z,1.80
2024-01-31T07:01:48.354Z,1.80
2024-01-31T07:04:17.386Z,2.03
2024-01-31T07:06:46.060Z,1.30
2024-01-31T07:09:14.655Z,1.43
2024-01-31T07:11:45.688Z,1.30
2024-01-31T07:14:14.211Z,1.30
2024-01-31T07:16:43.036Z,1.60
2024-01-31T07:19:12.422Z,1.47
2024-01-31T07:21:41.564Z,1.60
2024-01-31T07:24:16.082Z,1.60
2024-01-31T07:26:54.785Z,1.83
2024-01-31T07:29:23.209Z,1.90
2024-01-31T07:31:52.190Z,1.47
2024-01-31T07:34:21.903Z,1.50
2024-01-31T07:36:53.961Z,1.67
2024-01-31T07:39:24.971Z,1.70
2024-01-31T07:41:55.041Z,1.70
2024-01-31T07:44:24.119Z,1.60
2024-01-31T07:46:52.741Z,1.77
2024-01-31T07:49:21.318Z,1.53
2024-01-31T07:51:54.324Z,1.77
2024-01-31T07:54:22.780Z,1.37
2024-01-31T07:56:51.551Z,1.50
2024-01-31T07:59:24.046Z,1.37
2024-01-31T08:01:54.727Z,1.23
2024-01-31T08:04:23.178Z,1.23
2024-01-31T08:06:51.937Z,1.20
2024-01-31T08:09:22.950Z,1.40
2024-01-31T08:11:53.218Z,1.70
2024-01-31T08:14:23.115Z,1.60
2024-01-31T08:16:52.826Z,1.50
2024-01-31T08:19:21.326Z,1.47
2024-01-31T08:21:49.951Z,1.60
2024-01-31T08:24:20.391Z,1.23
2024-01-31T08:26:48.772Z,2.00
2024-01-31T08:29:23.696Z,1.60
2024-01-31T08:31:57.455Z,2.40
2024-01-31T08:35:17.820Z,1.83
2024-01-31T08:37:46.952Z,4.17
2024-01-31T08:40:19.783Z,19.50
2024-01-31T08:42:50.197Z,5.20
2024-01-31T08:45:18.715Z,3.67
2024-01-31T08:47:48.462Z,3.77
2024-01-31T08:50:16.992Z,7.57
2024-01-31T08:52:45.444Z,11.00
2024-01-31T08:55:15.408Z,16.37
2024-01-31T08:57:44.229Z,3.33
2024-01-31T09:00:13.850Z,2.60
2024-01-31T09:02:42.254Z,2.53
2024-01-31T09:05:13.637Z,2.07
2024-01-31T09:07:42.034Z,2.20
2024-01-31T09:10:10.814Z,2.30
2024-01-31T09:12:39.342Z,2.17
2024-01-31T09:15:10.734Z,2.60
2024-01-31T09:17:39.080Z,2.90
2024-01-31T09:20:08.902Z,2.67
2024-01-31T09:22:40.270Z,2.40
2024-01-31T09:25:12.557Z,2.70
2024-01-31T09:27:41.442Z,4.37
2024-01-31T09:30:10.885Z,2.90
2024-01-31T09:32:40.623Z,2.27
2024-01-31T09:35:09.883Z,3.03
2024-01-31T09:37:40.320Z,1.70
2024-01-31T09:40:11.879Z,2.17
2024-01-31T09:42:40.854Z,2.50
2024-01-31T09:45:12.570Z,2.17
2024-01-31T09:47:48.391Z,1.63
2024-01-31T09:50:18.166Z,1.83
2024-01-31T09:52:53.560Z,1.60
2024-01-31T09:55:27.540Z,2.17
2024-01-31T09:57:57.176Z,1.50
2024-01-31T10:00:25.684Z,1.93
2024-01-31T10:02:54.224Z,1.30
2024-01-31T10:05:22.853Z,1.90
2024-01-31T10:07:53.530Z,1.30
2024-01-31T10:10:25.202Z,1.50
2024-01-31T10:12:53.947Z,1.50
2024-01-31T10:15:22.418Z,1.30
2024-01-31T10:17:51.219Z,1.40
2024-01-31T10:20:20.321Z,1.33
2024-01-31T10:22:49.442Z,1.47
2024-01-31T10:25:20.048Z,1.90
2024-01-31T10:27:51.062Z,1.43
2024-01-31T10:30:23.637Z,1.30
2024-01-31T10:32:53.922Z,1.30
2024-01-31T10:35:34.005Z,1.27
2024-01-31T10:38:14.904Z,1.60
2024-01-31T10:40:45.456Z,1.40
2024-01-31T10:43:15.959Z,1.43
2024-01-31T10:45:44.479Z,1.30
2024-01-31T10:48:13.337Z,1.37
2024-01-31T10:50:43.704Z,1.00
2024-01-31T10:53:13.763Z,0.93
2024-01-31T10:55:42.905Z,1.27
2024-01-31T10:58:17.158Z,1.50
2024-01-31T11:00:49.302Z,1.30
2024-01-31T11:03:19.132Z,1.43
2024-01-31T11:05:52.432Z,1.30
2024-01-31T11:08:21.324Z,1.80
2024-01-31T11:10:53.284Z,1.23
2024-01-31T11:13:23.825Z,1.00
2024-01-31T11:15:53.861Z,1.50
2024-01-31T11:18:27.993Z,1.40
2024-01-31T11:20:59.074Z,1.10
2024-01-31T11:23:28.749Z,1.47
2024-01-31T11:25:57.170Z,1.17
2024-01-31T11:28:28.562Z,1.73
2024-01-31T11:30:57.226Z,1.20
2024-01-31T11:33:25.806Z,1.50
2024-01-31T11:35:55.932Z,2.20
2024-01-31T11:38:24.391Z,1.40
2024-01-31T11:40:54.111Z,1.60
2024-01-31T11:43:23.829Z,1.30
2024-01-31T11:45:54.280Z,1.60
2024-01-31T11:48:25.404Z,2.00
2024-01-31T11:50:55.337Z,1.80
2024-01-31T11:53:24.112Z,1.33
2024-01-31T11:55:53.802Z,1.37
2024-01-31T11:58:22.392Z,1.20
2024-01-31T12:00:51.475Z,1.60
2024-01-31T12:03:22.089Z,1.00
2024-01-31T12:05:58.067Z,1.30
2024-01-31T12:08:28.705Z,1.10
2024-01-31T12:10:57.166Z,1.03
2024-01-31T12:13:26.325Z,0.80
2024-01-31T12:15:57.187Z,1.33
2024-01-31T12:18:27.868Z,1.30
2024-01-31T12:21:03.095Z,1.17
2024-01-31T12:23:33.366Z,1.10
2024-01-31T12:26:02.360Z,1.30
2024-01-31T12:28:30.742Z,0.97
2024-01-31T12:30:59.381Z,1.37
2024-01-31T12:33:29.317Z,1.10
2024-01-31T12:35:58.014Z,1.00
2024-01-31T12:38:26.953Z,1.47
2024-01-31T12:40:56.569Z,1.07
2024-01-31T12:43:25.708Z,1.23
2024-01-31T12:45:54.465Z,1.30
2024-01-31T12:48:23.038Z,1.27
2024-01-31T12:50:57.914Z,1.30
2024-01-31T12:53:26.845Z,1.30
2024-01-31T12:55:55.336Z,1.47
2024-01-31T12:58:24.101Z,1.03
2024-01-31T13:00:53.160Z,1.10
2024-01-31T13:03:22.018Z,1.23
2024-01-31T13:05:52.210Z,1.10
2024-01-31T13:08:21.602Z,0.97
2024-01-31T13:10:50.523Z,1.20
2024-01-31T13:13:18.997Z,2.00
2024-01-31T13:15:47.799Z,1.70
2024-01-31T13:18:17.562Z,1.20
2024-01-31T13:20:46.409Z,1.23
2024-01-31T13:23:16.865Z,1.50
2024-01-31T13:25:45.425Z,1.47
2024-01-31T13:28:16.249Z,1.10
2024-01-31T13:30:44.831Z,0.97
2024-01-31T13:33:13.332Z,1.07
2024-01-31T13:35:41.751Z,1.10
2024-01-31T13:38:10.467Z,1.00
2024-01-31T13:40:40.416Z,1.00
2024-01-31T13:43:09.734Z,1.23
2024-01-31T13:45:38.400Z,0.90
2024-01-31T13:48:10.954Z,1.20
2024-01-31T13:50:41.548Z,1.10
2024-01-31T13:53:10.482Z,1.47
2024-01-31T13:55:41.103Z,1.30
2024-01-31T13:58:09.541Z,1.37
2024-01-31T14:00:38.397Z,1.20
2024-01-31T14:03:07.058Z,1.77
2024-01-31T14:05:35.918Z,1.40
2024-01-31T14:08:05.476Z,1.50
2024-01-31T14:10:35.104Z,1.63
2024-01-31T14:13:05.691Z,1.70
2024-01-31T14:15:34.762Z,1.20
2024-01-31T14:18:06.925Z,1.33
2024-01-31T14:20:38.221Z,1.77
2024-01-31T14:23:23.478Z,1.57
2024-01-31T14:25:56.046Z,1.40
2024-01-31T14:28:26.280Z,1.60
2024-01-31T14:30:54.796Z,1.20
2024-01-31T14:33:23.730Z,1.00
2024-01-31T14:35:52.668Z,1.13
2024-01-31T14:38:20.963Z,1.47
2024-01-31T14:40:51.691Z,1.50
2024-01-31T14:43:22.886Z,1.30
2024-01-31T14:45:56.692Z,1.30
2024-01-31T14:48:26.261Z,1.87
2024-01-31T14:50:55.584Z,3.67
2024-01-31T14:53:24.011Z,1.63
2024-01-31T14:55:53.826Z,1.60
2024-01-31T14:58:22.585Z,1.33
2024-01-31T15:00:53.471Z,1.30
2024-01-31T15:03:22.451Z,1.27
2024-01-31T15:05:51.178Z,1.40
2024-01-31T15:08:20.413Z,1.40
2024-01-31T15:10:49.344Z,1.17
2024-01-31T15:13:20.573Z,1.57
2024-01-31T15:15:49.274Z,1.40
2024-01-31T15:18:19.709Z,1.50
2024-01-31T15:20:50.088Z,1.17
2024-01-31T15:23:19.363Z,1.50
2024-01-31T15:25:50.253Z,1.53
2024-01-31T15:28:18.791Z,2.00
2024-01-31T15:30:47.488Z,4.60
2024-01-31T15:33:16.386Z,2.30
2024-01-31T15:35:46.610Z,2.53
2024-01-31T15:38:15.473Z,5.77
2024-01-31T15:40:43.826Z,7.00
2024-01-31T15:43:13.538Z,6.97
2024-01-31T15:45:43.384Z,1.40
2024-01-31T15:48:12.990Z,1.40
2024-01-31T15:50:42.944Z,1.40
2024-01-31T15:53:13.301Z,1.40
2024-01-31T15:55:41.797Z,1.50
2024-01-31T15:58:10.418Z,1.50
2024-01-31T16:00:40.000Z,1.40
2024-01-31T16:03:09.069Z,1.40
2024-01-31T16:05:38.151Z,1.30
2024-01-31T16:08:07.102Z,1.60
2024-01-31T16:10:36.949Z,1.60
2024-01-31T16:13:05.721Z,1.10
2024-01-31T16:15:34.221Z,1.10
2024-01-31T16:18:03.064Z,1.30
2024-01-31T16:20:34.160Z,1.33
2024-01-31T16:23:03.096Z,1.27
2024-01-31T16:25:31.529Z,0.83
2024-01-31T16:28:02.094Z,1.00
2024-01-31T16:30:30.869Z,1.10
2024-01-31T16:32:59.524Z,1.20
2024-01-31T16:35:28.333Z,1.37
2024-01-31T16:37:57.562Z,1.57
2024-01-31T16:40:26.139Z,1.27
2024-01-31T16:42:55.781Z,1.40
2024-01-31T16:45:26.507Z,1.60
2024-01-31T16:47:57.234Z,1.47
2024-01-31T16:50:26.565Z,1.70
2024-01-31T16:52:57.559Z,8.40
2024-01-31T16:55:26.765Z,5.10
2024-01-31T16:57:57.263Z,4.10
2024-01-31T17:00:29.084Z,3.37
2024-01-31T17:02:58.757Z,1.93
2024-01-31T17:05:28.319Z,1.33
2024-01-31T17:07:56.872Z,1.73
2024-01-31T17:10:28.169Z,1.30
2024-01-31T17:12:58.573Z,8.07
2024-01-31T17:15:28.776Z,1.67
2024-01-31T17:17:57.607Z,1.10
2024-01-31T17:20:26.104Z,1.80
2024-01-31T17:22:55.203Z,1.70
2024-01-31T17:25:26.350Z,1.43
2024-01-31T17:27:55.608Z,1.90
2024-01-31T17:30:24.182Z,1.93
2024-01-31T17:32:54.068Z,1.20
2024-01-31T17:35:23.218Z,1.60
2024-01-31T17:37:52.635Z,1.70
2024-01-31T17:40:22.284Z,1.80
2024-01-31T17:42:50.889Z,1.30
2024-01-31T17:45:19.686Z,1.00
2024-01-31T17:47:48.341Z,0.93
2024-01-31T17:50:18.387Z,1.20
2024-01-31T17:52:47.051Z,1.17
2024-01-31T17:55:15.654Z,1.27
2024-01-31T17:57:44.173Z,1.30
2024-01-31T18:00:16.734Z,2.00
2024-01-31T18:02:47.252Z,1.53
2024-01-31T18:05:18.104Z,1.00
2024-01-31T18:07:46.697Z,1.43
2024-01-31T18:13:22.021Z,1.60
2024-01-31T18:15:51.289Z,1.27
2024-01-31T18:18:24.617Z,1.57
2024-01-31T18:20:56.941Z,1.20
2024-01-31T18:23:25.467Z,1.10
2024-01-31T18:25:54.064Z,1.40
2024-01-31T18:28:24.539Z,1.43
2024-01-31T18:30:53.369Z,1.53
2024-01-31T18:33:23.228Z,1.90
2024-01-31T18:35:51.952Z,1.73
2024-01-31T18:38:21.771Z,1.43
2024-01-31T18:40:50.334Z,1.73
2024-01-31T18:43:23.874Z,1.60
2024-01-31T18:45:52.816Z,1.23
2024-01-31T18:48:21.394Z,1.97
2024-01-31T18:50:51.635Z,1.53
2024-01-31T18:53:22.761Z,1.70
2024-01-31T18:55:52.425Z,1.87
2024-01-31T18:58:21.188Z,2.40
2024-01-31T19:00:51.331Z,2.10
2024-01-31T19:03:20.241Z,1.67
2024-01-31T19:05:49.501Z,1.93
2024-01-31T19:08:18.806Z,1.60
2024-01-31T19:10:49.273Z,2.07
2024-01-31T19:13:17.703Z,1.60
2024-01-31T19:15:46.961Z,1.20
2024-01-31T19:18:16.285Z,1.50
2024-01-31T19:20:44.831Z,1.60
2024-01-31T19:23:16.010Z,2.17
2024-01-31T19:25:44.542Z,1.50
2024-01-31T19:28:15.083Z,4.53
2024-01-31T19:30:43.763Z,2.33
2024-01-31T19:33:12.982Z,3.00
2024-01-31T19:35:42.485Z,3.30
2024-01-31T19:38:10.902Z,2.50
2024-01-31T19:40:39.662Z,3.67
2024-01-31T19:43:08.162Z,3.67
2024-01-31T19:45:38.460Z,2.87
2024-01-31T19:48:08.986Z,3.67
2024-01-31T19:50:38.437Z,2.37
2024-01-31T19:53:07.189Z,2.60
2024-01-31T19:55:35.710Z,3.17
2024-01-31T19:58:07.349Z,3.93
2024-01-31T20:00:37.903Z,8.37
2024-01-31T20:03:07.003Z,2.60
2024-01-31T20:05:35.789Z,2.60
2024-01-31T20:08:04.554Z,2.53
2024-01-31T20:10:32.986Z,1.83
2024-01-31T20:13:01.574Z,1.80
2024-01-31T20:15:30.009Z,1.90
2024-01-31T20:18:00.084Z,2.00
2024-01-31T20:20:29.071Z,1.70
2024-01-31T20:22:57.633Z,1.70
2024-01-31T20:25:26.444Z,2.10
2024-01-31T20:27:55.849Z,2.17
2024-01-31T20:30:24.768Z,1.80
2024-01-31T20:32:54.135Z,2.60
2024-01-31T20:35:25.848Z,2.63
2024-01-31T20:37:54.909Z,1.80
2024-01-31T20:40:25.638Z,2.37
2024-01-31T20:42:53.888Z,2.00
2024-01-31T20:45:24.546Z,1.90
2024-01-31T20:47:53.120Z,2.07
2024-01-31T20:50:23.385Z,2.30
2024-01-31T20:52:51.689Z,2.07
2024-01-31T20:55:20.941Z,1.90
2024-01-31T20:57:49.551Z,2.17
2024-01-31T21:00:18.770Z,2.13
2024-01-31T21:02:47.427Z,1.93
2024-01-31T21:05:16.231Z,1.73
2024-01-31T21:07:46.246Z,2.17
2024-01-31T21:10:15.413Z,2.00
2024-01-31T21:12:44.165Z,2.03
2024-01-31T21:15:13.330Z,2.13
2024-01-31T21:17:42.566Z,2.50
2024-01-31T21:20:12.020Z,2.47
2024-01-31T21:22:40.616Z,2.20
2024-01-31T21:25:13.037Z,1.90
2024-01-31T21:27:41.839Z,2.00
2024-01-31T21:30:12.086Z,2.00
2024-01-31T21:32:41.170Z,2.23
2024-01-31T21:35:10.101Z,2.30
2024-01-31T21:37:38.652Z,2.77
2024-01-31T21:40:09.946Z,2.30
2024-01-31T21:42:41.697Z,2.50
2024-01-31T21:45:12.423Z,2.93
2024-01-31T21:47:41.091Z,2.20
2024-01-31T21:50:10.584Z,3.13
2024-01-31T21:52:40.162Z,3.00
2024-01-31T21:55:08.736Z,2.50
2024-01-31T21:57:39.742Z,2.37
2024-01-31T22:00:11.901Z,2.47
2024-01-31T22:02:40.364Z,2.30
2024-01-31T22:05:15.027Z,2.60
2024-01-31T22:07:44.381Z,2.30
2024-01-31T22:10:14.350Z,2.20
2024-01-31T22:12:44.390Z,3.30
2024-01-31T22:15:12.979Z,4.20
2024-01-31T22:17:41.395Z,3.50
2024-01-31T22:20:17.076Z,4.00
2024-01-31T22:22:45.779Z,4.40
2024-01-31T22:25:14.188Z,3.80
2024-01-31T22:27:45.807Z,5.10
2024-01-31T22:30:17.309Z,4.40
2024-01-31T22:32:46.429Z,5.20
2024-01-31T22:35:15.913Z,6.10
2024-01-31T22:37:44.371Z,5.43
2024-01-31T22:40:14.569Z,5.43
2024-01-31T22:42:44.394Z,5.80
2024-01-31T22:45:12.663Z,5.90
2024-01-31T22:47:41.898Z,6.50
2024-01-31T22:50:11.108Z,6.50
2024-01-31T22:52:40.238Z,4.77
2024-01-31T22:55:09.797Z,6.77
2024-01-31T22:57:40.378Z,6.57
2024-01-31T23:00:14.318Z,6.57
2024-01-31T23:02:42.929Z,6.83
2024-01-31T23:05:11.262Z,6.13
2024-01-31T23:07:39.779Z,6.77
2024-01-31T23:10:12.302Z,6.97
2024-01-31T23:12:42.036Z,7.27
2024-01-31T23:15:23.764Z,8.30
2024-01-31T23:17:52.214Z,6.73
2024-01-31T23:20:20.626Z,6.20
2024-01-31T23:22:50.304Z,6.40
2024-01-31T23:25:18.969Z,6.30
2024-01-31T23:27:47.617Z,6.30
2024-01-31T23:30:18.434Z,7.20
2024-01-31T23:32:47.225Z,7.00
2024-01-31T23:35:15.941Z,8.40
2024-01-31T23:37:47.263Z,8.63
2024-01-31T23:40:19.044Z,6.93
2024-01-31T23:42:49.935Z,6.97
2024-01-31T23:45:20.263Z,6.60
2024-01-31T23:47:51.396Z,7.23
2024-01-31T23:50:22.526Z,6.23
2024-01-31T23:52:52.461Z,5.90
2024-01-31T23:55:22.154Z,6.70
2024-01-31T23:57:50.377Z,5.80
